sensor_id;sensor_type;location;lat;lon;timestamp;P1;durP1;ratioP1;P2;durP2;ratioP2
1677;SDS011;6034;46.864;15.216;2023-03-31T04:41:21;3.42;;;2.25;;
1677;SDS011;6034;46.864;15.216;2023-03-31T04:43:49;2.70;;;1.83;;
1677;SDS011;6034;46.864;15.216;2023-03-31T04:46:16;6.80;;;2.10;;
1677;SDS011;6034;46.864;15.216;2023-03-31T04:48:43;3.60;;;2.20;;
1677;SDS011;6034;46.864;15.216;2023-03-31T04:51:11;3.05;;;1.85;;
1677;SDS011;6034;46.864;15.216;2023-03-31T04:53:39;2.38;;;1.50;;
1677;SDS011;6034;46.864;15.216;2023-03-31T04:56:07;3.95;;;1.85;;
1677;SDS011;6034;46.864;15.216;2023-03-31T05:23:12;4.28;;;2.45;;
1677;SDS011;6034;46.864;15.216;2023-03-31T05:25:40;5.10;;;2.50;;
1677;SDS011;6034;46.864;15.216;2023-03-31T05:28:07;6.70;;;2.85;;
1677;SDS011;6034;46.864;15.216;2023-03-31T05:30:35;3.40;;;1.90;;
1677;SDS011;6034;46.864;15.216;2023-03-31T05:33:03;2.13;;;1.75;;
1677;SDS011;6034;46.864;15.216;2023-03-31T05:35:31;3.17;;;2.33;;
1677;SDS011;6034;46.864;15.216;2023-03-31T05:37:58;3.42;;;3.05;;
1677;SDS011;6034;46.864;15.216;2023-03-31T05:40:25;8.40;;;3.67;;
1677;SDS011;6034;46.864;15.216;2023-03-31T05:42:52;5.10;;;3.10;;
1677;SDS011;6034;46.864;15.216;2023-03-31T05:45:20;5.28;;;2.65;;
1677;SDS011;6034;46.864;15.216;2023-03-31T05:47:47;5.72;;;3.85;;
1677;SDS011;6034;46.864;15.216;2023-03-31T05:50:16;3.28;;;2.55;;
1677;SDS011;6034;46.864;15.216;2023-03-31T05:52:43;3.13;;;2.50;;
1677;SDS011;6034;46.864;15.216;2023-03-31T05:55:11;3.33;;;2.75;;
1677;SDS011;6034;46.864;15.216;2023-03-31T05:57:38;4.80;;;2.85;;
1677;SDS011;6034;46.864;15.216;2023-03-31T06:00:06;3.72;;;2.30;;
1677;SDS011;6034;46.864;15.216;2023-03-31T06:02:35;4.55;;;2.17;;
1677;SDS011;6034;46.864;15.216;2023-03-31T06:05:02;4.15;;;2.83;;
1677;SDS011;6034;46.864;15.216;2023-03-31T06:07:32;8.15;;;2.80;;
1677;SDS011;6034;46.864;15.216;2023-03-31T06:09:59;4.00;;;2.80;;
1677;SDS011;6034;46.864;15.216;2023-03-31T06:12:27;2.85;;;2.08;;
1677;SDS011;6034;46.864;15.216;2023-03-31T06:14:54;3.70;;;2.38;;
1677;SDS011;6034;46.864;15.216;2023-03-31T06:17:21;5.53;;;1.90;;
1677;SDS011;6034;46.864;15.216;2023-03-31T06:19:49;2.80;;;2.00;;
1677;SDS011;6034;46.864;15.216;2023-03-31T06:22:16;2.35;;;1.52;;
1677;SDS011;6034;46.864;15.216;2023-03-31T06:24:45;2.45;;;1.77;;
1677;SDS011;6034;46.864;15.216;2023-03-31T06:27:12;2.30;;;1.60;;
1677;SDS011;6034;46.864;15.216;2023-03-31T06:29:40;2.97;;;2.20;;
1677;SDS011;6034;46.864;15.216;2023-03-31T06:32:07;2.80;;;1.80;;
1677;SDS011;6034;46.864;15.216;2023-03-31T06:34:34;4.47;;;2.42;;
1677;SDS011;6034;46.864;15.216;2023-03-31T06:37:01;3.60;;;2.40;;
1677;SDS011;6034;46.864;15.216;2023-03-31T06:39:29;3.10;;;2.13;;
1677;SDS011;6034;46.864;15.216;2023-03-31T06:41:58;4.03;;;2.60;;
1677;SDS011;6034;46.864;15.216;2023-03-31T06:44:25;3.38;;;2.50;;
1677;SDS011;6034;46.864;15.216;2023-03-31T06:46:52;3.80;;;2.70;;
1677;SDS011;6034;46.864;15.216;2023-03-31T06:49:20;4.15;;;2.40;;
1677;SDS011;6034;46.864;15.216;2023-03-31T06:51:48;3.10;;;2.35;;
1677;SDS011;6034;46.864;15.216;2023-03-31T06:54:15;3.53;;;2.70;;
1677;SDS011;6034;46.864;15.216;2023-03-31T06:56:42;3.47;;;2.78;;
1677;SDS011;6034;46.864;15.216;2023-03-31T06:59:11;3.65;;;3.22;;
1677;SDS011;6034;46.864;15.216;2023-03-31T07:01:38;5.00;;;2.85;;
1677;SDS011;6034;46.864;15.216;2023-03-31T07:04:06;6.05;;;3.20;;
1677;SDS011;6034;46.864;15.216;2023-03-31T07:06:34;4.80;;;3.88;;
1677;SDS011;6034;46.864;15.216;2023-03-31T07:09:01;3.45;;;2.72;;
1677;SDS011;6034;46.864;15.216;2023-03-31T07:11:29;5.30;;;3.17;;
1677;SDS011;6034;46.864;15.216;2023-03-31T07:13:56;3.75;;;3.15;;
1677;SDS011;6034;46.864;15.216;2023-03-31T07:16:25;3.60;;;2.55;;
1677;SDS011;6034;46.864;15.216;2023-03-31T07:18:53;3.67;;;2.90;;
1677;SDS011;6034;46.864;15.216;2023-03-31T07:21:23;3.22;;;2.25;;
1677;SDS011;6034;46.864;15.216;2023-03-31T07:23:51;4.00;;;2.40;;
1677;SDS011;6034;46.864;15.216;2023-03-31T07:26:18;4.95;;;2.38;;
1677;SDS011;6034;46.864;15.216;2023-03-31T07:28:46;5.68;;;2.17;;
1677;SDS011;6034;46.864;15.216;2023-03-31T07:31:13;2.60;;;2.05;;
1677;SDS011;6034;46.864;15.216;2023-03-31T07:33:42;2.97;;;2.25;;
1677;SDS011;6034;46.864;15.216;2023-03-31T07:36:09;4.22;;;2.35;;
1677;SDS011;6034;46.864;15.216;2023-03-31T07:38:38;2.80;;;2.20;;
1677;SDS011;6034;46.864;15.216;2023-03-31T07:41:08;3.88;;;2.30;;
1677;SDS011;6034;46.864;15.216;2023-03-31T07:43:36;3.20;;;2.45;;
1677;SDS011;6034;46.864;15.216;2023-03-31T07:46:04;3.58;;;2.58;;
1677;SDS011;6034;46.864;15.216;2023-03-31T07:48:32;3.80;;;2.72;;
1677;SDS011;6034;46.864;15.216;2023-03-31T07:51:01;6.68;;;3.40;;
1677;SDS011;6034;46.864;15.216;2023-03-31T07:53:29;5.20;;;3.08;;
1677;SDS011;6034;46.864;15.216;2023-03-31T07:55:56;7.80;;;3.25;;
1677;SDS011;6034;46.864;15.216;2023-03-31T07:58:23;6.35;;;2.90;;
1677;SDS011;6034;46.864;15.216;2023-03-31T08:00:51;4.85;;;3.47;;
1677;SDS011;6034;46.864;15.216;2023-03-31T08:03:18;4.00;;;3.30;;
1677;SDS011;6034;46.864;15.216;2023-03-31T08:05:46;6.28;;;3.35;;
1677;SDS011;6034;46.864;15.216;2023-03-31T08:08:17;3.25;;;2.72;;
1677;SDS011;6034;46.864;15.216;2023-03-31T08:10:45;7.35;;;3.72;;
1677;SDS011;6034;46.864;15.216;2023-03-31T08:13:13;5.07;;;3.25;;
1677;SDS011;6034;46.864;15.216;2023-03-31T08:15:40;7.32;;;3.35;;
1677;SDS011;6034;46.864;15.216;2023-03-31T08:18:07;4.60;;;2.70;;
1677;SDS011;6034;46.864;15.216;2023-03-31T08:20:35;7.15;;;3.33;;
1677;SDS011;6034;46.864;15.216;2023-03-31T08:23:03;5.22;;;3.10;;
1677;SDS011;6034;46.864;15.216;2023-03-31T08:25:34;3.67;;;2.78;;
1677;SDS011;6034;46.864;15.216;2023-03-31T08:28:01;5.00;;;3.15;;
1677;SDS011;6034;46.864;15.216;2023-03-31T08:30:29;4.38;;;3.28;;
1677;SDS011;6034;46.864;15.216;2023-03-31T08:32:56;3.80;;;2.65;;
1677;SDS011;6034;46.864;15.216;2023-03-31T08:35:23;3.72;;;2.70;;
1677;SDS011;6034;46.864;15.216;2023-03-31T08:37:51;5.80;;;3.05;;
1677;SDS011;6034;46.864;15.216;2023-03-31T08:40:21;3.45;;;2.58;;
1677;SDS011;6034;46.864;15.216;2023-03-31T08:42:53;5.20;;;2.70;;
1677;SDS011;6034;46.864;15.216;2023-03-31T08:45:24;5.10;;;2.83;;
1677;SDS011;6034;46.864;15.216;2023-03-31T08:47:57;3.30;;;2.90;;
1677;SDS011;6034;46.864;15.216;2023-03-31T08:50:29;2.78;;;2.50;;
1677;SDS011;6034;46.864;15.216;2023-03-31T08:53:00;3.53;;;2.45;;
1677;SDS011;6034;46.864;15.216;2023-03-31T08:55:33;4.80;;;2.00;;
1677;SDS011;6034;46.864;15.216;2023-03-31T08:58:16;3.38;;;2.08;;
1677;SDS011;6034;46.864;15.216;2023-03-31T09:00:51;4.85;;;2.40;;
1677;SDS011;6034;46.864;15.216;2023-03-31T09:03:27;3.05;;;1.75;;
1677;SDS011;6034;46.864;15.216;2023-03-31T09:05:59;3.05;;;2.08;;
1677;SDS011;6034;46.864;15.216;2023-03-31T09:08:32;2.67;;;1.92;;
1677;SDS011;6034;46.864;15.216;2023-03-31T09:11:12;3.53;;;1.90;;
1677;SDS011;6034;46.864;15.216;2023-03-31T09:13:56;2.63;;;1.60;;
1677;SDS011;6034;46.864;15.216;2023-03-31T09:16:32;2.95;;;1.73;;
1677;SDS011;6034;46.864;15.216;2023-03-31T09:19:07;2.70;;;1.90;;
1677;SDS011;6034;46.864;15.216;2023-03-31T09:21:42;3.10;;;1.73;;
1677;SDS011;6034;46.864;15.216;2023-03-31T09:24:13;2.13;;;1.80;;
1677;SDS011;6034;46.864;15.216;2023-03-31T09:26:45;2.03;;;1.60;;
1677;SDS011;6034;46.864;15.216;2023-03-31T09:29:20;2.70;;;2.00;;
1677;SDS011;6034;46.864;15.216;2023-03-31T09:31:51;2.90;;;1.90;;
1677;SDS011;6034;46.864;15.216;2023-03-31T09:34:23;3.88;;;1.40;;
1677;SDS011;6034;46.864;15.216;2023-03-31T12:08:17;2.30;;;1.30;;
1677;SDS011;6034;46.864;15.216;2023-03-31T12:10:51;2.28;;;1.70;;
1677;SDS011;6034;46.864;15.216;2023-03-31T12:13:29;2.75;;;1.52;;
1677;SDS011;6034;46.864;15.216;2023-03-31T12:16:03;3.83;;;2.20;;
1677;SDS011;6034;46.864;15.216;2023-03-31T12:18:37;2.13;;;1.50;;
1677;SDS011;6034;46.864;15.216;2023-03-31T12:21:08;2.67;;;1.45;;
1677;SDS011;6034;46.864;15.216;2023-03-31T12:23:39;3.60;;;1.90;;
1677;SDS011;6034;46.864;15.216;2023-03-31T12:26:11;2.72;;;1.42;;
1677;SDS011;6034;46.864;15.216;2023-03-31T12:28:48;2.58;;;1.55;;
1677;SDS011;6034;46.864;15.216;2023-03-31T12:31:22;2.40;;;1.52;;
1677;SDS011;6034;46.864;15.216;2023-03-31T12:33:52;2.30;;;1.30;;
1677;SDS011;6034;46.864;15.216;2023-03-31T12:36:28;2.03;;;1.50;;
1677;SDS011;6034;46.864;15.216;2023-03-31T12:39:09;6.07;;;1.45;;
1677;SDS011;6034;46.864;15.216;2023-03-31T12:41:51;3.00;;;1.40;;
1677;SDS011;6034;46.864;15.216;2023-03-31T12:44:43;3.95;;;1.45;;
1677;SDS011;6034;46.864;15.216;2023-03-31T12:47:22;3.25;;;1.60;;
1677;SDS011;6034;46.864;15.216;2023-03-31T12:53:04;3.45;;;1.20;;
1677;SDS011;6034;46.864;15.216;2023-03-31T12:55:42;3.15;;;1.33;;
1677;SDS011;6034;46.864;15.216;2023-03-31T13:01:06;3.05;;;1.65;;
1677;SDS011;6034;46.864;15.216;2023-03-31T13:03:45;4.35;;;1.40;;
1677;SDS011;6034;46.864;15.216;2023-03-31T13:12:18;2.38;;;1.50;;
1677;SDS011;6034;46.864;15.216;2023-03-31T13:14:48;4.20;;;1.70;;
1677;SDS011;6034;46.864;15.216;2023-03-31T13:17:22;2.75;;;1.45;;
1677;SDS011;6034;46.864;15.216;2023-03-31T13:19:52;2.30;;;1.45;;
1677;SDS011;6034;46.864;15.216;2023-03-31T13:22:28;3.20;;;2.10;;
1677;SDS011;6034;46.864;15.216;2023-03-31T13:28:30;5.88;;;1.52;;
1677;SDS011;6034;46.864;15.216;2023-03-31T13:31:04;2.72;;;1.60;;
1677;SDS011;6034;46.864;15.216;2023-03-31T13:33:37;3.63;;;2.03;;
1677;SDS011;6034;46.864;15.216;2023-03-31T13:36:12;2.47;;;1.52;;
1677;SDS011;6034;46.864;15.216;2023-03-31T13:39:02;3.05;;;2.10;;
1677;SDS011;6034;46.864;15.216;2023-03-31T13:41:48;2.90;;;1.92;;
1677;SDS011;6034;46.864;15.216;2023-03-31T13:47:30;2.85;;;1.75;;
1677;SDS011;6034;46.864;15.216;2023-03-31T13:50:16;4.65;;;1.90;;
1677;SDS011;6034;46.864;15.216;2023-03-31T13:52:56;4.25;;;2.42;;
1677;SDS011;6034;46.864;15.216;2023-03-31T13:55:45;1.92;;;1.38;;
1677;SDS011;6034;46.864;15.216;2023-03-31T13:58:33;3.80;;;1.50;;
1677;SDS011;6034;46.864;15.216;2023-03-31T14:04:33;2.20;;;1.45;;
1677;SDS011;6034;46.864;15.216;2023-03-31T14:07:25;3.30;;;1.83;;
1677;SDS011;6034;46.864;15.216;2023-03-31T14:09:58;2.33;;;1.30;;
1677;SDS011;6034;46.864;15.216;2023-03-31T14:12:30;2.17;;;1.50;;
1677;SDS011;6034;46.864;15.216;2023-03-31T14:14:59;3.42;;;1.60;;
1677;SDS011;6034;46.864;15.216;2023-03-31T17:52:09;2.85;;;0.50;;
1677;SDS011;6034;46.864;15.216;2023-03-31T17:54:37;1.30;;;0.40;;
1677;SDS011;6034;46.864;15.216;2023-03-31T17:57:06;1.42;;;0.50;;
1677;SDS011;6034;46.864;15.216;2023-03-31T17:59:36;1.40;;;0.60;;
1677;SDS011;6034;46.864;15.216;2023-03-31T18:02:03;1.80;;;0.40;;
1677;SDS011;6034;46.864;15.216;2023-03-31T18:04:31;1.48;;;0.60;;
1677;SDS011;6034;46.864;15.216;2023-03-31T18:06:59;2.05;;;0.68;;
1677;SDS011;6034;46.864;15.216;2023-03-31T18:09:27;1.40;;;0.52;;
1677;SDS011;6034;46.864;15.216;2023-03-31T18:11:56;2.25;;;0.70;;
1677;SDS011;6034;46.864;15.216;2023-03-31T18:14:24;2.70;;;1.02;;
1677;SDS011;6034;46.864;15.216;2023-03-31T18:16:55;1.85;;;0.65;;
1677;SDS011;6034;46.864;15.216;2023-03-31T18:19:23;1.17;;;0.47;;
1677;SDS011;6034;46.864;15.216;2023-03-31T18:21:52;1.60;;;0.77;;
1677;SDS011;6034;46.864;15.216;2023-03-31T18:24:19;1.40;;;0.57;;
1677;SDS011;6034;46.864;15.216;2023-03-31T18:26:47;1.20;;;0.40;;
1677;SDS011;6034;46.864;15.216;2023-03-31T18:29:16;1.38;;;0.60;;
1677;SDS011;6034;46.864;15.216;2023-03-31T18:31:45;3.22;;;1.65;;
1677;SDS011;6034;46.864;15.216;2023-03-31T18:34:14;1.50;;;0.73;;
1677;SDS011;6034;46.864;15.216;2023-03-31T18:36:42;1.67;;;1.02;;
1677;SDS011;6034;46.864;15.216;2023-03-31T18:39:13;1.70;;;0.70;;
1677;SDS011;6034;46.864;15.216;2023-03-31T18:41:43;2.05;;;0.75;;
1677;SDS011;6034;46.864;15.216;2023-03-31T18:44:12;1.60;;;0.50;;
1677;SDS011;6034;46.864;15.216;2023-03-31T18:46:42;1.50;;;0.60;;
